sensor_id;sensor_type;location;lat;lon;timestamp;P1;durP1;ratioP1;P2;durP2;ratioP2
42670;SDS011;28283;55.426;37.756;2023-07-16T00:03:42;7.57;;;6.83;;
42670;SDS011;28283;55.426;37.756;2023-07-16T00:08:49;10.65;;;7.30;;
42670;SDS011;28283;55.426;37.756;2023-07-16T00:13:50;8.60;;;6.93;;
42670;SDS011;28283;55.426;37.756;2023-07-16T00:18:50;11.20;;;7.40;;
42670;SDS011;28283;55.426;37.756;2023-07-16T00:23:52;9.20;;;6.65;;
42670;SDS011;28283;55.426;37.756;2023-07-16T00:28:53;12.43;;;6.43;;
42670;SDS011;28283;55.426;37.756;2023-07-16T00:33:54;11.55;;;6.88;;
42670;SDS011;28283;55.426;37.756;2023-07-16T00:38:54;8.80;;;7.18;;
42670;SDS011;28283;55.426;37.756;2023-07-16T00:43:55;15.25;;;8.32;;
42670;SDS011;28283;55.426;37.756;2023-07-16T00:48:56;8.68;;;7.88;;
42670;SDS011;28283;55.426;37.756;2023-07-16T00:53:56;8.82;;;7.88;;
42670;SDS011;28283;55.426;37.756;2023-07-16T00:58:57;9.35;;;7.22;;
42670;SDS011;28283;55.426;37.756;2023-07-16T01:03:57;10.87;;;8.17;;
42670;SDS011;28283;55.426;37.756;2023-07-16T01:09:06;9.63;;;7.47;;
42670;SDS011;28283;55.426;37.756;2023-07-16T01:14:12;13.07;;;7.50;;
42670;SDS011;28283;55.426;37.756;2023-07-16T01:19:13;9.32;;;7.00;;
42670;SDS011;28283;55.426;37.756;2023-07-16T01:24:23;5.47;;;4.97;;
42670;SDS011;28283;55.426;37.756;2023-07-16T01:29:50;10.10;;;7.00;;
42670;SDS011;28283;55.426;37.756;2023-07-16T01:34:58;6.75;;;5.97;;
42670;SDS011;28283;55.426;37.756;2023-07-16T01:40:00;14.82;;;6.90;;
42670;SDS011;28283;55.426;37.756;2023-07-16T01:45:01;7.82;;;6.80;;
42670;SDS011;28283;55.426;37.756;2023-07-16T01:50:02;10.85;;;7.10;;
42670;SDS011;28283;55.426;37.756;2023-07-16T01:55:03;11.60;;;8.57;;
42670;SDS011;28283;55.426;37.756;2023-07-16T02:05:05;13.32;;;8.52;;
42670;SDS011;28283;55.426;37.756;2023-07-16T02:10:06;9.13;;;8.15;;
42670;SDS011;28283;55.426;37.756;2023-07-16T02:15:07;12.13;;;8.10;;
42670;SDS011;28283;55.426;37.756;2023-07-16T02:20:08;9.27;;;8.15;;
42670;SDS011;28283;55.426;37.756;2023-07-16T02:25:10;9.40;;;8.30;;
42670;SDS011;28283;55.426;37.756;2023-07-16T02:30:11;10.90;;;8.68;;
42670;SDS011;28283;55.426;37.756;2023-07-16T02:35:12;10.52;;;7.53;;
42670;SDS011;28283;55.426;37.756;2023-07-16T02:45:13;10.05;;;7.10;;
42670;SDS011;28283;55.426;37.756;2023-07-16T02:50:14;8.50;;;6.22;;
42670;SDS011;28283;55.426;37.756;2023-07-16T02:55:15;10.68;;;7.30;;
42670;SDS011;28283;55.426;37.756;2023-07-16T03:00:16;8.35;;;6.90;;
42670;SDS011;28283;55.426;37.756;2023-07-16T03:05:16;8.88;;;7.43;;
42670;SDS011;28283;55.426;37.756;2023-07-16T03:10:18;8.43;;;7.15;;
42670;SDS011;28283;55.426;37.756;2023-07-16T03:15:18;11.45;;;7.10;;
42670;SDS011;28283;55.426;37.756;2023-07-16T03:20:19;8.82;;;6.38;;
42670;SDS011;28283;55.426;37.756;2023-07-16T03:25:20;7.65;;;5.85;;
42670;SDS011;28283;55.426;37.756;2023-07-16T03:30:20;11.38;;;6.18;;
42670;SDS011;28283;55.426;37.756;2023-07-16T03:35:21;8.23;;;5.47;;
42670;SDS011;28283;55.426;37.756;2023-07-16T03:40:23;8.57;;;7.65;;
42670;SDS011;28283;55.426;37.756;2023-07-16T03:45:25;10.40;;;6.05;;
42670;SDS011;28283;55.426;37.756;2023-07-16T03:50:25;6.10;;;5.45;;
42670;SDS011;28283;55.426;37.756;2023-07-16T03:55:26;10.70;;;6.70;;
42670;SDS011;28283;55.426;37.756;2023-07-16T04:00:27;13.17;;;6.90;;
42670;SDS011;28283;55.426;37.756;2023-07-16T04:05:27;7.03;;;6.30;;
42670;SDS011;28283;55.426;37.756;2023-07-16T04:10:28;8.43;;;6.40;;
42670;SDS011;28283;55.426;37.756;2023-07-16T04:15:29;7.90;;;6.60;;
42670;SDS011;28283;55.426;37.756;2023-07-16T04:20:30;7.28;;;6.50;;
42670;SDS011;28283;55.426;37.756;2023-07-16T04:25:30;6.50;;;5.22;;
42670;SDS011;28283;55.426;37.756;2023-07-16T04:30:31;6.90;;;6.25;;
42670;SDS011;28283;55.426;37.756;2023-07-16T04:35:32;6.65;;;5.82;;
42670;SDS011;28283;55.426;37.756;2023-07-16T04:40:33;9.13;;;4.38;;
42670;SDS011;28283;55.426;37.756;2023-07-16T04:45:34;11.77;;;7.60;;
42670;SDS011;28283;55.426;37.756;2023-07-16T04:50:34;8.77;;;6.40;;
42670;SDS011;28283;55.426;37.756;2023-07-16T04:55:38;8.60;;;6.78;;
42670;SDS011;28283;55.426;37.756;2023-07-16T05:00:39;5.40;;;2.58;;
42670;SDS011;28283;55.426;37.756;2023-07-16T05:05:40;8.10;;;5.80;;
42670;SDS011;28283;55.426;37.756;2023-07-16T05:10:41;10.10;;;6.47;;
42670;SDS011;28283;55.426;37.756;2023-07-16T05:15:43;8.27;;;5.63;;
42670;SDS011;28283;55.426;37.756;2023-07-16T05:20:46;8.50;;;6.00;;
42670;SDS011;28283;55.426;37.756;2023-07-16T05:25:48;8.60;;;5.93;;
42670;SDS011;28283;55.426;37.756;2023-07-16T05:30:57;7.28;;;5.30;;
42670;SDS011;28283;55.426;37.756;2023-07-16T05:35:58;8.48;;;4.57;;
42670;SDS011;28283;55.426;37.756;2023-07-16T05:41:00;11.32;;;5.18;;
42670;SDS011;28283;55.426;37.756;2023-07-16T05:46:02;10.07;;;5.35;;
42670;SDS011;28283;55.426;37.756;2023-07-16T05:51:05;7.88;;;4.88;;
42670;SDS011;28283;55.426;37.756;2023-07-16T05:56:05;5.57;;;4.32;;
42670;SDS011;28283;55.426;37.756;2023-07-16T06:01:06;8.10;;;4.45;;
42670;SDS011;28283;55.426;37.756;2023-07-16T06:06:09;5.10;;;3.83;;
42670;SDS011;28283;55.426;37.756;2023-07-16T06:11:11;3.40;;;3.10;;
42670;SDS011;28283;55.426;37.756;2023-07-16T06:16:12;3.42;;;3.20;;
42670;SDS011;28283;55.426;37.756;2023-07-16T06:21:12;4.38;;;2.95;;
42670;SDS011;28283;55.426;37.756;2023-07-16T06:31:14;3.83;;;3.53;;
42670;SDS011;28283;55.426;37.756;2023-07-16T06:41:15;3.92;;;3.50;;
42670;SDS011;28283;55.426;37.756;2023-07-16T06:46:16;3.78;;;2.95;;
42670;SDS011;28283;55.426;37.756;2023-07-16T06:56:17;3.22;;;2.80;;
42670;SDS011;28283;55.426;37.756;2023-07-16T07:01:18;6.30;;;4.57;;
42670;SDS011;28283;55.426;37.756;2023-07-16T07:11:19;4.18;;;3.80;;
42670;SDS011;28283;55.426;37.756;2023-07-16T07:16:20;2.42;;;2.22;;
42670;SDS011;28283;55.426;37.756;2023-07-16T07:21:21;4.07;;;3.65;;
42670;SDS011;28283;55.426;37.756;2023-07-16T07:26:22;7.03;;;4.68;;
42670;SDS011;28283;55.426;37.756;2023-07-16T07:36:23;8.43;;;3.40;;
42670;SDS011;28283;55.426;37.756;2023-07-16T07:41:23;3.88;;;3.55;;
42670;SDS011;28283;55.426;37.756;2023-07-16T07:51:24;2.47;;;2.27;;
42670;SDS011;28283;55.426;37.756;2023-07-16T08:01:25;3.78;;;2.72;;
42670;SDS011;28283;55.426;37.756;2023-07-16T08:06:27;2.53;;;2.30;;
42670;SDS011;28283;55.426;37.756;2023-07-16T08:16:28;4.67;;;2.93;;
42670;SDS011;28283;55.426;37.756;2023-07-16T08:26:29;3.03;;;2.80;;
42670;SDS011;28283;55.426;37.756;2023-07-16T08:31:29;2.22;;;2.13;;
42670;SDS011;28283;55.426;37.756;2023-07-16T08:41:33;5.05;;;2.33;;
42670;SDS011;28283;55.426;37.756;2023-07-16T08:51:34;4.57;;;2.33;;
42670;SDS011;28283;55.426;37.756;2023-07-16T08:56:36;3.08;;;2.60;;
42670;SDS011;28283;55.426;37.756;2023-07-16T09:01:37;2.10;;;1.48;;
42670;SDS011;28283;55.426;37.756;2023-07-16T09:06:38;2.47;;;1.17;;
42670;SDS011;28283;55.426;37.756;2023-07-16T09:16:52;7.80;;;2.78;;
42670;SDS011;28283;55.426;37.756;2023-07-16T09:21:53;7.75;;;1.33;;
42670;SDS011;28283;55.426;37.756;2023-07-16T09:31:59;3.80;;;2.60;;
42670;SDS011;28283;55.426;37.756;2023-07-16T09:37:03;4.72;;;2.55;;
42670;SDS011;28283;55.426;37.756;2023-07-16T09:42:06;2.42;;;1.98;;
42670;SDS011;28283;55.426;37.756;2023-07-16T09:47:07;4.13;;;2.47;;
42670;SDS011;28283;55.426;37.756;2023-07-16T09:52:08;2.42;;;1.58;;
42670;SDS011;28283;55.426;37.756;2023-07-16T09:57:08;6.55;;;2.20;;
42670;SDS011;28283;55.426;37.756;2023-07-16T10:02:09;3.10;;;1.92;;
42670;SDS011;28283;55.426;37.756;2023-07-16T10:07:20;5.68;;;2.80;;
42670;SDS011;28283;55.426;37.756;2023-07-16T10:12:23;1.77;;;1.67;;
42670;SDS011;28283;55.426;37.756;2023-07-16T10:17:25;3.45;;;2.60;;
42670;SDS011;28283;55.426;37.756;2023-07-16T10:27:38;2.50;;;2.30;;
42670;SDS011;28283;55.426;37.756;2023-07-16T10:32:39;2.95;;;2.65;;
42670;SDS011;28283;55.426;37.756;2023-07-16T10:37:40;6.25;;;2.05;;
42670;SDS011;28283;55.426;37.756;2023-07-16T10:42:41;6.25;;;2.85;;
42670;SDS011;28283;55.426;37.756;2023-07-16T10:47:53;2.85;;;1.65;;
42670;SDS011;28283;55.426;37.756;2023-07-16T10:52:55;4.05;;;2.50;;
42670;SDS011;28283;55.426;37.756;2023-07-16T10:57:56;2.05;;;1.70;;
42670;SDS011;28283;55.426;37.756;2023-07-16T11:02:57;1.58;;;1.30;;
42670;SDS011;28283;55.426;37.756;2023-07-16T11:07:58;2.08;;;1.42;;
42670;SDS011;28283;55.426;37.756;2023-07-16T11:12:58;1.52;;;1.42;;
42670;SDS011;28283;55.426;37.756;2023-07-16T11:18:04;1.13;;;1.02;;
42670;SDS011;28283;55.426;37.756;2023-07-16T11:23:04;4.15;;;2.17;;
42670;SDS011;28283;55.426;37.756;2023-07-16T11:28:05;2.35;;;1.85;;
42670;SDS011;28283;55.426;37.756;2023-07-16T11:33:09;2.10;;;1.83;;
42670;SDS011;28283;55.426;37.756;2023-07-16T11:38:11;2.55;;;1.80;;
42670;SDS011;28283;55.426;37.756;2023-07-16T11:43:11;3.55;;;1.63;;
42670;SDS011;28283;55.426;37.756;2023-07-16T11:48:12;2.63;;;1.85;;
42670;SDS011;28283;55.426;37.756;2023-07-16T11:53:13;1.23;;;0.60;;
42670;SDS011;28283;55.426;37.756;2023-07-16T11:58:13;1.98;;;1.60;;
42670;SDS011;28283;55.426;37.756;2023-07-16T12:03:14;2.28;;;2.10;;
42670;SDS011;28283;55.426;37.756;2023-07-16T12:08:15;4.15;;;2.17;;
42670;SDS011;28283;55.426;37.756;2023-07-16T12:13:16;1.90;;;1.80;;
42670;SDS011;28283;55.426;37.756;2023-07-16T12:18:16;3.35;;;2.20;;
42670;SDS011;28283;55.426;37.756;2023-07-16T12:23:17;2.15;;;1.80;;
42670;SDS011;28283;55.426;37.756;2023-07-16T12:28:17;2.15;;;2.05;;
42670;SDS011;28283;55.426;37.756;2023-07-16T12:33:18;2.30;;;2.10;;
42670;SDS011;28283;55.426;37.756;2023-07-16T12:38:19;4.70;;;2.28;;
42670;SDS011;28283;55.426;37.756;2023-07-16T12:43:19;2.28;;;1.73;;
42670;SDS011;28283;55.426;37.756;2023-07-16T12:48:20;3.33;;;1.60;;
42670;SDS011;28283;55.426;37.756;2023-07-16T12:53:20;1.80;;;1.63;;
42670;SDS011;28283;55.426;37.756;2023-07-16T12:58:21;3.03;;;2.65;;
42670;SDS011;28283;55.426;37.756;2023-07-16T13:03:22;2.80;;;2.00;;
42670;SDS011;28283;55.426;37.756;2023-07-16T13:08:22;7.03;;;3.05;;
42670;SDS011;28283;55.426;37.756;2023-07-16T13:13:24;2.70;;;1.88;;
42670;SDS011;28283;55.426;37.756;2023-07-16T13:18:24;1.98;;;1.77;;
42670;SDS011;28283;55.426;37.756;2023-07-16T13:23:25;2.38;;;1.65;;
42670;SDS011;28283;55.426;37.756;2023-07-16T13:28:25;2.58;;;1.70;;
42670;SDS011;28283;55.426;37.756;2023-07-16T13:33:26;3.08;;;1.65;;
42670;SDS011;28283;55.426;37.756;2023-07-16T13:38:27;2.67;;;1.73;;
42670;SDS011;28283;55.426;37.756;2023-07-16T13:43:27;2.50;;;1.40;;
42670;SDS011;28283;55.426;37.756;2023-07-16T13:48:28;1.90;;;1.75;;
42670;SDS011;28283;55.426;37.756;2023-07-16T13:53:28;1.73;;;1.63;;
42670;SDS011;28283;55.426;37.756;2023-07-16T13:58:29;3.28;;;1.67;;
42670;SDS011;28283;55.426;37.756;2023-07-16T14:03:29;3.60;;;1.80;;
42670;SDS011;28283;55.426;37.756;2023-07-16T14:08:30;4.13;;;1.92;;
42670;SDS011;28283;55.426;37.756;2023-07-16T14:13:34;3.80;;;1.88;;
42670;SDS011;28283;55.426;37.756;2023-07-16T14:18:34;2.72;;;1.83;;
42670;SDS011;28283;55.426;37.756;2023-07-16T14:23:35;3.20;;;1.80;;
42670;SDS011;28283;55.426;37.756;2023-07-16T14:28:35;1.65;;;1.58;;
42670;SDS011;28283;55.426;37.756;2023-07-16T14:33:36;4.07;;;1.70;;
42670;SDS011;28283;55.426;37.756;2023-07-16T14:38:37;3.55;;;1.98;;
42670;SDS011;28283;55.426;37.756;2023-07-16T14:43:38;2.15;;;1.75;;
42670;SDS011;28283;55.426;37.756;2023-07-16T14:48:39;2.45;;;2.00;;
42670;SDS011;28283;55.426;37.756;2023-07-16T14:53:40;2.67;;;2.28;;
42670;SDS011;28283;55.426;37.756;2023-07-16T14:58:40;2.90;;;2.15;;
42670;SDS011;28283;55.426;37.756;2023-07-16T15:03:41;2.63;;;1.50;;
42670;SDS011;28283;55.426;37.756;2023-07-16T15:08:42;4.05;;;1.80;;
42670;SDS011;28283;55.426;37.756;2023-07-16T15:13:42;2.67;;;2.47;;
42670;SDS011;28283;55.426;37.756;2023-07-16T15:18:43;5.97;;;2.50;;
42670;SDS011;28283;55.426;37.756;2023-07-16T15:23:45;9.10;;;2.90;;
42670;SDS011;28283;55.426;37.756;2023-07-16T15:28:46;4.55;;;2.53;;
42670;SDS011;28283;55.426;37.756;2023-07-16T15:33:46;4.97;;;2.45;;
42670;SDS011;28283;55.426;37.756;2023-07-16T15:38:47;3.13;;;2.33;;
42670;SDS011;28283;55.426;37.756;2023-07-16T15:43:47;4.78;;;2.03;;
42670;SDS011;28283;55.426;37.756;2023-07-16T15:48:49;3.42;;;2.50;;
42670;SDS011;28283;55.426;37.756;2023-07-16T15:53:53;4.28;;;2.33;;
42670;SDS011;28283;55.426;37.756;2023-07-16T15:58:54;6.55;;;2.85;;
42670;SDS011;28283;55.426;37.756;2023-07-16T16:03:55;4.50;;;2.25;;
42670;SDS011;28283;55.426;37.756;2023-07-16T16:08:56;5.45;;;2.75;;
42670;SDS011;28283;55.426;37.756;2023-07-16T16:13:57;5.60;;;2.72;;
42670;SDS011;28283;55.426;37.756;2023-07-16T16:18:58;3.63;;;3.05;;
42670;SDS011;28283;55.426;37.756;2023-07-16T16:23:58;6.78;;;4.10;;
42670;SDS011;28283;55.426;37.756;2023-07-16T16:29:00;4.95;;;2.85;;
42670;SDS011;28283;55.426;37.756;2023-07-16T16:34:01;5.05;;;3.80;;
42670;SDS011;28283;55.426;37.756;2023-07-16T16:39:02;4.60;;;3.33;;
42670;SDS011;28283;55.426;37.756;2023-07-16T16:44:03;3.05;;;2.75;;
42670;SDS011;28283;55.426;37.756;2023-07-16T16:49:04;9.25;;;3.15;;
42670;SDS011;28283;55.426;37.756;2023-07-16T16:54:04;5.20;;;3.42;;
42670;SDS011;28283;55.426;37.756;2023-07-16T16:59:05;7.75;;;3.13;;
42670;SDS011;28283;55.426;37.756;2023-07-16T17:04:06;5.07;;;3.78;;
42670;SDS011;28283;55.426;37.756;2023-07-16T17:09:07;9.45;;;4.57;;
42670;SDS011;28283;55.426;37.756;2023-07-16T17:14:08;8.63;;;5.55;;
42670;SDS011;28283;55.426;37.756;2023-07-16T17:19:08;8.25;;;4.75;;
42670;SDS011;28283;55.426;37.756;2023-07-16T17:24:09;7.78;;;2.97;;
42670;SDS011;28283;55.426;37.756;2023-07-16T17:29:11;6.25;;;2.60;;
42670;SDS011;28283;55.426;37.756;2023-07-16T17:34:12;3.95;;;2.30;;
42670;SDS011;28283;55.426;37.756;2023-07-16T17:39:12;5.47;;;2.35;;
42670;SDS011;28283;55.426;37.756;2023-07-16T17:44:13;3.78;;;3.22;;
42670;SDS011;28283;55.426;37.756;2023-07-16T17:49:14;7.10;;;3.30;;
42670;SDS011;28283;55.426;37.756;2023-07-16T17:54:15;6.80;;;2.75;;
42670;SDS011;28283;55.426;37.756;2023-07-16T17:59:15;5.53;;;2.35;;
42670;SDS011;28283;55.426;37.756;2023-07-16T18:04:16;3.30;;;2.47;;
42670;SDS011;28283;55.426;37.756;2023-07-16T18:09:17;5.93;;;3.05;;
42670;SDS011;28283;55.426;37.756;2023-07-16T18:14:19;4.30;;;3.20;;
42670;SDS011;28283;55.426;37.756;2023-07-16T18:19:20;3.28;;;2.70;;
42670;SDS011;28283;55.426;37.756;2023-07-16T18:24:21;5.72;;;2.45;;
42670;SDS011;28283;55.426;37.756;2023-07-16T18:29:21;6.15;;;3.65;;
42670;SDS011;28283;55.426;37.756;2023-07-16T18:34:22;8.27;;;4.25;;
42670;SDS011;28283;55.426;37.756;2023-07-16T18:39:23;4.50;;;2.53;;
42670;SDS011;28283;55.426;37.756;2023-07-16T18:44:23;7.95;;;2.80;;
42670;SDS011;28283;55.426;37.756;2023-07-16T18:49:24;3.38;;;2.97;;
42670;SDS011;28283;55.426;37.756;2023-07-16T18:54:25;6.65;;;3.10;;
42670;SDS011;28283;55.426;37.756;2023-07-16T18:59:25;5.07;;;3.50;;
42670;SDS011;28283;55.426;37.756;2023-07-16T19:04:26;6.60;;;3.10;;
42670;SDS011;28283;55.426;37.756;2023-07-16T19:09:27;6.65;;;3.38;;
42670;SDS011;28283;55.426;37.756;2023-07-16T19:14:29;7.50;;;3.75;;
42670;SDS011;28283;55.426;37.756;2023-07-16T19:24:30;8.80;;;3.47;;
42670;SDS011;28283;55.426;37.756;2023-07-16T19:34:31;7.00;;;4.10;;
42670;SDS011;28283;55.426;37.756;2023-07-16T19:39:33;9.52;;;4.53;;
42670;SDS011;28283;55.426;37.756;2023-07-16T19:49:34;12.77;;;5.25;;
42670;SDS011;28283;55.426;37.756;2023-07-16T19:59:35;12.53;;;6.27;;
42670;SDS011;28283;55.426;37.756;2023-07-16T20:09:36;12.27;;;5.57;;
42670;SDS011;28283;55.426;37.756;2023-07-16T20:14:37;13.82;;;7.05;;
42670;SDS011;28283;55.426;37.756;2023-07-16T20:24:39;11.05;;;6.32;;
42670;SDS011;28283;55.426;37.756;2023-07-16T20:34:40;16.87;;;4.90;;
42670;SDS011;28283;55.426;37.756;2023-07-16T20:44:49;9.77;;;6.10;;
42670;SDS011;28283;55.426;37.756;2023-07-16T20:50:15;9.82;;;5.80;;
42670;SDS011;28283;55.426;37.756;2023-07-16T20:55:17;12.45;;;5.70;;
42670;SDS011;28283;55.426;37.756;2023-07-16T21:00:18;7.82;;;5.50;;
42670;SDS011;28283;55.426;37.756;2023-07-16T21:05:22;8.65;;;5.20;;
42670;SDS011;28283;55.426;37.756;2023-07-16T21:10:27;12.18;;;4.60;;
42670;SDS011;28283;55.426;37.756;2023-07-16T21:15:28;6.65;;;5.45;;
42670;SDS011;28283;55.426;37.756;2023-07-16T21:20:35;12.50;;;6.03;;
42670;SDS011;28283;55.426;37.756;2023-07-16T21:25:37;9.88;;;7.03;;
42670;SDS011;28283;55.426;37.756;2023-07-16T21:30:38;12.63;;;8.43;;
42670;SDS011;28283;55.426;37.756;2023-07-16T21:40:39;15.60;;;9.50;;
42670;SDS011;28283;55.426;37.756;2023-07-16T21:45:40;13.07;;;7.90;;
42670;SDS011;28283;55.426;37.756;2023-07-16T21:50:41;11.57;;;7.55;;
42670;SDS011;28283;55.426;37.756;2023-07-16T21:55:42;9.63;;;7.13;;
42670;SDS011;28283;55.426;37.756;2023-07-16T22:00:43;12.20;;;7.43;;
42670;SDS011;28283;55.426;37.756;2023-07-16T22:05:43;14.75;;;7.63;;
42670;SDS011;28283;55.426;37.756;2023-07-16T22:10:44;12.20;;;7.13;;
42670;SDS011;28283;55.426;37.756;2023-07-16T22:15:45;11.73;;;7.10;;
42670;SDS011;28283;55.426;37.756;2023-07-16T22:20:47;12.43;;;7.25;;
42670;SDS011;28283;55.426;37.756;2023-07-16T22:25:47;17.40;;;7.97;;
42670;SDS011;28283;55.426;37.756;2023-07-16T22:30:48;13.15;;;6.55;;
42670;SDS011;28283;55.426;37.756;2023-07-16T22:35:48;9.35;;;6.93;;
42670;SDS011;28283;55.426;37.756;2023-07-16T22:40:49;10.55;;;6.43;;
42670;SDS011;28283;55.426;37.756;2023-07-16T22:45:50;9.65;;;5.75;;
42670;SDS011;28283;55.426;37.756;2023-07-16T22:50:50;15.25;;;7.20;;
42670;SDS011;28283;55.426;37.756;2023-07-16T22:55:51;13.95;;;7.55;;
42670;SDS011;28283;55.426;37.756;2023-07-16T23:00:51;12.82;;;7.05;;
42670;SDS011;28283;55.426;37.756;2023-07-16T23:05:52;10.53;;;6.57;;
42670;SDS011;28283;55.426;37.756;2023-07-16T23:10:52;13.02;;;7.10;;
42670;SDS011;28283;55.426;37.756;2023-07-16T23:15:53;10.10;;;7.30;;
42670;SDS011;28283;55.426;37.756;2023-07-16T23:20:55;13.05;;;7.60;;
42670;SDS011;28283;55.426;37.756;2023-07-16T23:25:55;8.73;;;6.53;;
42670;SDS011;28283;55.426;37.756;2023-07-16T23:30:56;16.92;;;8.13;;
42670;SDS011;28283;55.426;37.756;2023-07-16T23:35:57;17.02;;;7.68;;
42670;SDS011;28283;55.426;37.756;2023-07-16T23:40:57;17.23;;;15.38;;
42670;SDS011;28283;55.426;37.756;2023-07-16T23:45:58;35.95;;;28.92;;
42670;SDS011;28283;55.426;37.756;2023-07-16T23:50:59;26.55;;;22.02;;
42670;SDS011;28283;55.426;37.756;2023-07-16T23:55:59;18.20;;;12.73;;
